Time;durP1;ratioP1;P1;durP2;ratioP2;P2;SDS_P1;SDS_P2;PMS_P1;PMS_P2;Temp;Humidity;BMP_temperature;BMP_pressure;BME280_temperature;BME280_humidity;BME280_pressure;Samples;Min_cycle;Max_cycle;Signal;HPM_P1;HPM_P2
2023/06/12 00:00:52;;;;;;;2.20;1.10;;;;;;;8.98;94.21;99118.86;105146;1253;76286;-22
2023/06/12 00:03:26;;;;;;;3.00;1.00;;;;;;;8.82;93.63;99114.54;105279;1272;75370;-35
2023/06/12 00:05:58;;;;;;;2.50;1.10;;;;;;;8.81;93.92;99110.73;105583;1260;75443;-21
2023/06/12 00:08:28;;;;;;;6.00;1.30;;;;;;;8.70;94.76;99110.02;105269;1262;62730;-22
2023/06/12 00:10:56;;;;;;;1.60;0.80;;;;;;;8.54;96.03;99109.89;105432;1255;61800;-21
2023/06/12 00:13:24;;;;;;;1.60;1.10;;;;;;;8.67;95.41;99105.70;105384;1260;75592;-21
2023/06/12 00:15:53;;;;;;;4.60;1.60;;;;;;;8.72;95.40;99106.71;105416;1254;76290;-21
2023/06/12 00:18:21;;;;;;;1.90;1.30;;;;;;;8.79;95.05;99106.75;105352;1257;75277;-21
2023/06/12 00:20:49;;;;;;;2.00;1.20;;;;;;;8.81;95.30;99110.43;105254;1259;61117;-21
2023/06/12 00:23:17;;;;;;;4.90;1.00;;;;;;;8.58;95.50;99106.88;105455;1254;61342;-21
2023/06/12 00:25:45;;;;;;;1.00;0.90;;;;;;;8.78;95.80;99104.89;105424;1254;75640;-21
2023/06/12 00:28:13;;;;;;;3.80;1.10;;;;;;;8.86;94.50;99103.51;105382;1262;77170;-21
2023/06/12 00:30:41;;;;;;;1.60;1.20;;;;;;;9.01;94.44;99102.02;105219;1269;75450;-21
2023/06/12 00:33:10;;;;;;;1.30;1.10;;;;;;;8.78;95.06;99099.08;105570;1258;61395;-21
2023/06/12 00:35:37;;;;;;;3.70;1.20;;;;;;;8.55;96.11;99090.98;105716;1254;62347;-21
2023/06/12 00:38:06;;;;;;;1.40;1.00;;;;;;;8.55;96.75;99089.61;105515;1255;76623;-21
2023/06/12 00:40:34;;;;;;;1.50;1.00;;;;;;;8.50;96.62;99081.11;105667;1259;77202;-21
2023/06/12 00:43:02;;;;;;;1.40;0.90;;;;;;;8.36;97.79;99081.98;105470;1260;74574;-21
2023/06/12 00:45:30;;;;;;;1.50;1.10;;;;;;;8.52;97.68;99082.07;105208;1257;61629;-21
2023/06/12 00:47:58;;;;;;;1.00;0.90;;;;;;;8.33;98.62;99078.89;105424;1259;62803;-22
2023/06/12 00:50:27;;;;;;;3.70;1.10;;;;;;;8.51;98.28;99073.24;105253;1253;76417;-21
2023/06/12 00:52:56;;;;;;;3.00;1.20;;;;;;;8.37;97.99;99063.22;105258;1255;76638;-22
2023/06/12 00:55:24;;;;;;;1.50;1.20;;;;;;;8.42;98.75;99068.52;105178;1262;74393;-21
2023/06/12 00:57:52;;;;;;;3.70;1.00;;;;;;;8.45;98.76;99060.90;105417;1254;63403;-21
2023/06/12 01:00:21;;;;;;;1.50;0.90;;;;;;;8.43;98.43;99056.20;105529;1258;61046;-22
2023/06/12 01:02:58;;;;;;;4.00;1.40;;;;;;;8.51;97.91;99053.54;105304;1255;76623;-21
2023/06/12 01:05:32;;;;;;;2.70;0.90;;;;;;;8.51;98.14;99055.98;105182;1262;74571;-21
2023/06/12 01:08:26;;;;;;;3.70;1.20;;;;;;;8.43;97.88;99051.21;105152;1259;72373;-21
2023/06/12 01:11:03;;;;;;;1.00;0.80;;;;;;;8.33;99.33;99052.91;105216;1260;63239;-21
2023/06/12 01:13:31;;;;;;;2.90;1.10;;;;;;;8.72;97.91;99058.45;105167;1259;61192;-21
2023/06/12 01:15:59;;;;;;;1.60;1.20;;;;;;;8.95;96.38;99059.16;105334;1261;75599;-21
2023/06/12 01:18:29;;;;;;;4.30;1.10;;;;;;;8.70;96.31;99056.14;105265;1254;75518;-21
2023/06/12 01:20:58;;;;;;;2.80;1.20;;;;;;;8.51;97.68;99058.70;105212;1259;73103;-21
2023/06/12 01:23:44;;;;;;;1.80;1.00;;;;;;;8.52;98.17;99059.20;105579;1258;63108;-21
2023/06/12 01:26:36;;;;;;;3.80;1.00;;;;;;;8.92;96.48;99054.61;105287;1259;62167;-21
2023/06/12 01:29:14;;;;;;;2.60;0.90;;;;;;;8.68;96.38;99053.69;105527;1260;74712;-21
2023/06/12 01:31:56;;;;;;;3.60;1.10;;;;;;;8.32;98.41;99048.02;105326;1255;75779;-21
2023/06/12 01:34:27;;;;;;;1.60;1.00;;;;;;;8.78;97.94;99056.80;105509;1257;73940;-21
2023/06/12 01:37:05;;;;;;;1.40;1.10;;;;;;;9.05;96.08;99049.46;105345;1254;62317;-21
2023/06/12 01:39:39;;;;;;;2.10;1.10;;;;;;;8.81;96.16;99048.63;105133;1254;61786;-21
2023/06/12 01:42:10;;;;;;;3.30;1.10;;;;;;;8.66;96.77;99050.23;105141;1261;76924;-21
2023/06/12 01:44:38;;;;;;;2.70;0.90;;;;;;;8.52;98.51;99048.48;105285;1254;77160;-21
2023/06/12 01:47:06;;;;;;;1.00;0.80;;;;;;;9.03;96.70;99045.61;105267;1257;73802;-21
2023/06/12 01:49:35;;;;;;;1.80;1.00;;;;;;;8.77;95.60;99043.39;105436;1260;62192;-21
2023/06/12 01:52:04;;;;;;;1.20;1.00;;;;;;;8.72;96.49;99053.27;105504;1253;61660;-21
2023/06/12 01:54:33;;;;;;;1.70;1.10;;;;;;;8.75;96.96;99058.74;105162;1262;73544;-21
2023/06/12 01:57:02;;;;;;;0.90;0.70;;;;;;;8.59;97.64;99056.77;105406;1254;76095;-21
2023/06/12 01:59:34;;;;;;;1.60;0.80;;;;;;;9.18;96.11;99060.91;105535;1259;74470;-21
2023/06/12 02:02:02;;;;;;;1.60;0.80;;;;;;;9.33;93.60;99052.89;105348;1257;62918;-21
2023/06/12 02:04:30;;;;;;;3.60;1.10;;;;;;;9.18;93.71;99052.08;105205;1260;61407;-21
2023/06/12 02:07:00;;;;;;;4.30;1.30;;;;;;;8.82;95.68;99049.27;105267;1260;75044;-22
2023/06/12 02:09:29;;;;;;;1.60;0.70;;;;;;;8.49;98.09;99052.66;105152;1254;76212;-21
2023/06/12 02:11:58;;;;;;;4.30;0.90;;;;;;;8.84;97.42;99052.20;105532;1254;74607;-21
2023/06/12 02:14:30;;;;;;;2.20;1.00;;;;;;;8.81;96.95;99053.27;105257;1255;61864;-21
2023/06/12 02:16:58;;;;;;;1.30;0.90;;;;;;;8.91;95.93;99055.70;105329;1261;61244;-21
2023/06/12 02:19:26;;;;;;;2.60;0.70;;;;;;;8.64;97.30;99059.52;105497;1254;76642;-21
2023/06/12 02:21:54;;;;;;;2.80;1.60;;;;;;;8.70;97.68;99059.65;105552;1254;76263;-21
2023/06/12 02:24:33;;;;;;;17.30;8.30;;;;;;;8.91;96.82;99061.73;105129;1261;74030;-21
2023/06/12 02:27:02;;;;;;;3.00;1.50;;;;;;;9.02;95.74;99059.89;105247;1261;61185;-21
2023/06/12 02:29:30;;;;;;;2.50;1.80;;;;;;;8.83;96.12;99059.58;105247;1253;61067;-21
2023/06/12 02:31:59;;;;;;;8.90;3.60;;;;;;;8.44;98.72;99062.38;105508;1258;76104;-22
2023/06/12 02:34:27;;;;;;;6.60;3.60;;;;;;;8.84;98.32;99062.09;105498;1254;75710;-21
2023/06/12 02:36:55;;;;;;;35.60;24.70;;;;;;;8.85;96.88;99059.23;105268;1260;75440;-21
2023/06/12 02:39:25;;;;;;;11.20;5.30;;;;;;;9.11;96.10;99056.45;105372;1260;62204;-21
2023/06/12 02:41:53;;;;;;;9.70;5.20;;;;;;;8.77;96.25;99054.95;105515;1254;62805;-21
2023/06/12 02:44:21;;;;;;;6.20;2.80;;;;;;;8.62;97.79;99059.30;105652;1260;75594;-21
2023/06/12 02:46:53;;;;;;;9.50;3.60;;;;;;;8.96;97.34;99054.45;105595;1255;74412;-21
2023/06/12 02:49:26;;;;;;;15.90;6.60;;;;;;;8.92;96.48;99052.50;105652;1258;74058;-21
2023/06/12 02:51:54;;;;;;;11.00;4.70;;;;;;;8.97;96.52;99052.09;105481;1259;62917;-22
2023/06/12 02:54:26;;;;;;;5.40;2.50;;;;;;;8.88;96.70;99056.08;105328;1260;62488;-22
2023/06/12 02:56:55;;;;;;;1.20;0.80;;;;;;;8.87;97.44;99056.65;105152;1255;76352;-21
2023/06/12 02:59:23;;;;;;;1.70;0.90;;;;;;;9.09;96.29;99054.39;105216;1260;77130;-22
2023/06/12 03:01:56;;;;;;;3.20;1.00;;;;;;;9.09;95.82;99044.11;105339;1254;73061;-21
2023/06/12 03:04:36;;;;;;;9.40;3.10;;;;;;;9.01;96.00;99035.85;105388;1254;61511;-22
2023/06/12 03:07:05;;;;;;;6.70;3.20;;;;;;;8.73;97.83;99032.62;105256;1260;62839;-21
2023/06/12 03:09:34;;;;;;;6.40;2.60;;;;;;;8.77;97.85;99029.34;105153;1254;77403;-22
2023/06/12 03:12:03;;;;;;;8.40;3.90;;;;;;;9.12;96.35;99022.40;105375;1254;76193;-22
2023/06/12 03:14:33;;;;;;;7.40;3.20;;;;;;;8.96;96.23;99019.43;105551;1253;74803;-21
2023/06/12 03:17:02;;;;;;;7.20;2.90;;;;;;;8.97;96.92;99021.34;105523;1254;61927;-21
2023/06/12 03:19:31;;;;;;;2.00;0.90;;;;;;;8.85;97.72;99023.35;105400;1253;62087;-21
2023/06/12 03:21:59;;;;;;;1.40;0.80;;;;;;;9.22;95.75;99020.63;105457;1260;76523;-21
2023/06/12 03:24:29;;;;;;;5.90;2.40;;;;;;;9.17;95.33;99022.25;105403;1260;76213;-21
2023/06/12 03:26:58;;;;;;;4.40;1.70;;;;;;;9.40;94.40;99019.58;105322;1258;74068;-21
2023/06/12 03:29:28;;;;;;;6.40;3.10;;;;;;;9.37;94.33;99021.55;105458;1259;62726;-21
2023/06/12 03:31:56;;;;;;;2.90;1.10;;;;;;;9.39;94.28;99024.73;105540;1259;62749;-21
2023/06/12 03:34:26;;;;;;;1.10;0.70;;;;;;;9.03;95.93;99026.77;105530;1258;76231;-21
2023/06/12 03:36:54;;;;;;;2.40;1.00;;;;;;;9.64;94.31;99027.11;105295;1254;76110;-21
2023/06/12 03:39:25;;;;;;;3.60;1.20;;;;;;;9.32;93.33;99025.45;105415;1253;75572;-21
2023/06/12 03:41:56;;;;;;;2.00;1.00;;;;;;;9.34;94.07;99027.72;105486;1255;62573;-21
2023/06/12 03:44:31;;;;;;;1.50;1.00;;;;;;;9.22;95.30;99030.48;105107;1253;61372;-21
2023/06/12 03:46:59;;;;;;;6.60;2.40;;;;;;;8.91;96.54;99027.64;105263;1260;76464;-22
2023/06/12 03:49:27;;;;;;;39.60;16.30;;;;;;;9.21;95.98;99018.79;105416;1260;77029;-21
2023/06/12 03:51:55;;;;;;;4.00;1.90;;;;;;;9.18;95.64;99014.86;105207;1260;73370;-21
2023/06/12 03:54:23;;;;;;;2.70;1.50;;;;;;;9.07;95.77;99020.73;105468;1259;61212;-21
2023/06/12 03:56:51;;;;;;;3.20;1.70;;;;;;;9.01;96.69;99028.60;105519;1254;61373;-21
2023/06/12 03:59:19;;;;;;;33.60;13.50;;;;;;;8.92;97.21;99025.47;105506;1258;75570;-21
2023/06/12 04:01:48;;;;;;;37.50;13.30;;;;;;;9.14;96.67;99017.45;105497;1254;76998;-21
2023/06/12 04:04:16;;;;;;;45.00;17.70;;;;;;;9.39;95.15;99014.83;105563;1261;74845;-21
2023/06/12 04:06:45;;;;;;;23.80;8.40;;;;;;;9.09;95.87;99011.40;105652;1253;61843;-21
2023/06/12 04:09:17;;;;;;;12.10;5.50;;;;;;;8.89;97.06;99013.71;105566;1261;61175;-21
2023/06/12 04:11:46;;;;;;;48.60;18.50;;;;;;;8.85;98.42;99015.47;105534;1258;76625;-21
2023/06/12 04:14:14;;;;;;;49.60;17.80;;;;;;;9.20;97.15;99012.98;105447;1254;76864;-21
2023/06/12 04:16:42;;;;;;;5.90;3.20;;;;;;;9.30;95.95;99011.73;105616;1256;75382;-21
2023/06/12 04:19:12;;;;;;;4.80;1.70;;;;;;;9.00;96.70;99006.69;105641;1257;61260;-21
2023/06/12 04:21:40;;;;;;;19.30;8.30;;;;;;;8.83;97.80;99016.29;105710;1257;62809;-21
2023/06/12 04:24:15;;;;;;;13.70;6.00;;;;;;;9.12;97.62;99009.77;105448;1253;75519;-22
2023/06/12 04:26:46;;;;;;;7.10;2.30;;;;;;;9.32;96.08;99013.09;105418;1253;77129;-21
2023/06/12 04:29:16;;;;;;;18.20;6.70;;;;;;;9.46;95.05;99012.77;105581;1261;73149;-21
2023/06/12 04:31:44;;;;;;;32.30;12.70;;;;;;;9.23;95.79;99013.31;105155;1257;61534;-21
2023/06/12 04:34:15;;;;;;;19.10;8.00;;;;;;;9.30;96.78;99013.47;105547;1254;61462;-21
2023/06/12 04:36:45;;;;;;;39.60;15.00;;;;;;;9.77;94.79;99015.23;105518;1253;76572;-21
2023/06/12 04:39:13;;;;;;;37.80;14.70;;;;;;;9.72;92.74;99014.75;105696;1253;75278;-22
2023/06/12 04:41:42;;;;;;;34.50;13.70;;;;;;;9.30;94.14;99016.02;105686;1257;75427;-21
2023/06/12 04:44:12;;;;;;;5.40;2.60;;;;;;;9.19;95.50;99020.15;105678;1257;61891;-22
2023/06/12 04:46:41;;;;;;;20.70;9.80;;;;;;;9.20;96.81;99027.39;105608;1260;61782;-21
2023/06/12 04:49:10;;;;;;;3.20;1.60;;;;;;;9.84;94.62;99023.52;105521;1254;73776;-21
2023/06/12 04:51:39;;;;;;;12.30;5.60;;;;;;;10.00;91.66;99021.38;105536;1257;76534;-22
2023/06/12 04:54:09;;;;;;;5.40;2.80;;;;;;;10.05;90.98;99021.14;105524;1254;74105;-22
2023/06/12 04:56:40;;;;;;;2.20;1.40;;;;;;;9.87;91.26;99025.58;105420;1254;62845;-21
2023/06/12 04:59:10;;;;;;;6.60;2.70;;;;;;;9.65;92.33;99026.52;105477;1253;61640;-21
2023/06/12 05:01:38;;;;;;;3.10;1.50;;;;;;;9.64;93.74;99028.52;105229;1261;73866;-23
2023/06/12 05:04:07;;;;;;;3.40;1.40;;;;;;;9.93;91.56;99027.86;105496;1253;76283;-21
2023/06/12 05:06:40;;;;;;;8.00;3.10;;;;;;;9.98;91.16;99027.60;105493;1258;73830;-21
2023/06/12 05:09:08;;;;;;;1.80;0.80;;;;;;;9.69;91.75;99030.91;105659;1257;61256;-21
2023/06/12 05:11:36;;;;;;;35.60;14.70;;;;;;;9.69;92.31;99033.50;105562;1252;61811;-21
2023/06/12 05:14:06;;;;;;;1.40;1.00;;;;;;;9.56;93.45;99032.28;105567;1253;75844;-21
2023/06/12 05:16:34;;;;;;;5.50;2.00;;;;;;;10.05;91.73;99024.79;105474;1253;76200;-24
2023/06/12 05:19:02;;;;;;;14.20;6.50;;;;;;;9.77;92.04;99028.38;105521;1257;75451;-21
2023/06/12 05:21:30;;;;;;;35.90;12.70;;;;;;;9.87;91.26;99029.52;105544;1257;62201;-21
2023/06/12 05:23:58;;;;;;;7.30;3.60;;;;;;;9.97;91.36;99027.47;105456;1260;61801;-23
2023/06/12 05:26:27;;;;;;;11.00;3.50;;;;;;;9.36;93.19;99033.27;105472;1255;75527;-23
2023/06/12 05:28:55;;;;;;;10.90;3.60;;;;;;;9.57;94.35;99037.02;105375;1253;76743;-23
2023/06/12 05:31:22;;;;;;;11.10;4.70;;;;;;;9.92;92.23;99030.71;105520;1253;75403;-23
2023/06/12 05:33:51;;;;;;;8.50;3.90;;;;;;;9.73;91.92;99034.63;105524;1257;61308;-23
2023/06/12 05:36:19;;;;;;;34.70;15.10;;;;;;;10.10;91.09;99032.42;105448;1259;61738;-23
2023/06/12 05:38:47;;;;;;;32.20;15.30;;;;;;;9.74;92.05;99036.11;105492;1253;75718;-23
2023/06/12 05:41:15;;;;;;;36.20;19.80;;;;;;;9.60;93.08;99037.64;105468;1253;77083;-23
2023/06/12 05:43:46;;;;;;;27.10;14.10;;;;;;;9.95;93.01;99042.08;105400;1256;75374;-24
2023/06/12 05:46:15;;;;;;;14.10;7.30;;;;;;;10.14;90.65;99044.03;105459;1253;61165;-23
2023/06/12 05:48:43;;;;;;;15.00;7.80;;;;;;;9.76;91.21;99046.45;105474;1253;62416;-24
2023/06/12 05:51:12;;;;;;;14.00;6.70;;;;;;;9.67;92.49;99049.45;105508;1256;76231;-24
2023/06/12 05:53:44;;;;;;;5.20;2.20;;;;;;;9.86;92.59;99047.42;105442;1253;74465;-23
2023/06/12 05:56:13;;;;;;;15.80;8.10;;;;;;;10.35;90.08;99039.45;105534;1260;72564;-24
2023/06/12 05:58:42;;;;;;;2.80;1.50;;;;;;;10.31;88.32;99040.09;105525;1254;62578;-24
2023/06/12 06:01:11;;;;;;;4.30;2.50;;;;;;;10.27;88.90;99040.25;105543;1253;62206;-24
2023/06/12 06:03:48;;;;;;;44.50;23.90;;;;;;;9.96;90.83;99042.71;105454;1258;75695;-24
2023/06/12 06:06:17;;;;;;;1.20;1.10;;;;;;;9.70;92.26;99042.11;105445;1253;77142;-23
2023/06/12 06:08:45;;;;;;;32.70;14.40;;;;;;;9.78;92.27;99043.55;105485;1254;73829;-23
2023/06/12 06:11:13;;;;;;;6.70;3.60;;;;;;;9.90;91.32;99042.28;105394;1260;61279;-23
2023/06/12 06:13:43;;;;;;;17.70;7.80;;;;;;;9.80;92.20;99046.90;105462;1253;62117;-23
2023/06/12 06:16:12;;;;;;;40.10;17.10;;;;;;;9.73;92.22;99046.02;105338;1260;75608;-23
2023/06/12 06:18:40;;;;;;;10.90;5.70;;;;;;;9.45;93.34;99050.95;105372;1253;76828;-23
2023/06/12 06:21:08;;;;;;;62.90;26.20;;;;;;;9.74;93.20;99050.30;105398;1254;73149;-24
2023/06/12 06:23:36;;;;;;;57.40;23.20;;;;;;;9.99;91.16;99047.52;105476;1258;63120;-23
2023/06/12 06:26:05;;;;;;;3.20;2.00;;;;;;;10.14;91.02;99048.70;105461;1253;62065;-23
2023/06/12 06:28:34;;;;;;;52.70;20.50;;;;;;;9.76;91.25;99047.36;105677;1257;75592;-23
2023/06/12 06:31:06;;;;;;;55.10;21.30;;;;;;;9.65;92.26;99050.05;105713;1253;76324;-23
2023/06/12 06:33:34;;;;;;;10.90;4.70;;;;;;;9.63;92.93;99051.83;105429;1254;74810;-23
2023/06/12 06:36:03;;;;;;;5.60;2.50;;;;;;;9.99;91.37;99047.85;105454;1254;62305;-23
2023/06/12 06:38:31;;;;;;;29.90;10.30;;;;;;;10.07;91.23;99045.80;105601;1257;62481;-23
2023/06/12 06:40:59;;;;;;;1.70;1.10;;;;;;;10.03;90.75;99047.37;105472;1260;74968;-23
2023/06/12 06:43:30;;;;;;;2.40;0.80;;;;;;;9.63;92.29;99046.08;105615;1257;76267;-23
2023/06/12 06:45:58;;;;;;;2.90;1.80;;;;;;;10.16;90.76;99043.70;105698;1253;73083;-23
2023/06/12 06:48:27;;;;;;;1.80;0.90;;;;;;;10.72;88.81;99042.34;105520;1256;61575;-23
2023/06/12 06:50:55;;;;;;;5.40;3.30;;;;;;;10.61;87.54;99042.61;105421;1260;61107;-23
2023/06/12 06:53:23;;;;;;;3.40;1.00;;;;;;;10.11;89.04;99040.60;105373;1260;76880;-23
2023/06/12 06:55:51;;;;;;;3.10;2.20;;;;;;;9.92;91.22;99046.10;105484;1257;75320;-23
2023/06/12 06:58:19;;;;;;;4.90;3.80;;;;;;;10.02;91.59;99040.98;105478;1253;73916;-23
2023/06/12 07:00:48;;;;;;;5.40;3.70;;;;;;;10.59;89.93;99040.13;105512;1260;61421;-24
2023/06/12 07:03:16;;;;;;;5.70;3.40;;;;;;;10.54;88.48;99041.73;105517;1253;61870;-24
2023/06/12 07:05:44;;;;;;;10.50;5.40;;;;;;;10.34;88.73;99040.33;105483;1260;75357;-23
2023/06/12 07:08:13;;;;;;;16.50;9.90;;;;;;;10.04;90.36;99045.88;105704;1253;76202;-23
2023/06/12 07:10:41;;;;;;;6.60;4.20;;;;;;;10.07;91.14;99039.57;103702;1253;2646801;-23
2023/06/12 07:13:12;;;;;;;20.10;9.70;;;;;;;10.03;91.53;99046.10;105532;1253;61261;-23
2023/06/12 07:15:44;;;;;;;18.70;8.80;;;;;;;10.38;89.74;99046.64;105198;1254;61817;-24
2023/06/12 07:18:13;;;;;;;8.30;4.50;;;;;;;10.18;90.08;99045.65;105464;1257;75588;-23
2023/06/12 07:20:42;;;;;;;6.10;4.00;;;;;;;10.22;90.05;99048.11;105527;1254;75861;-23
2023/06/12 07:23:10;;;;;;;12.00;5.50;;;;;;;10.14;90.45;99051.52;105443;1253;73470;-23
2023/06/12 07:25:38;;;;;;;7.30;3.50;;;;;;;9.81;92.23;99054.06;105701;1260;64163;-23
2023/06/12 07:28:06;;;;;;;9.20;4.80;;;;;;;10.27;91.37;99052.20;105499;1260;61149;-24
2023/06/12 07:30:38;;;;;;;22.10;10.20;;;;;;;10.52;89.69;99050.29;105484;1253;72834;-24
2023/06/12 07:33:06;;;;;;;5.30;3.10;;;;;;;10.18;90.30;99048.98;105461;1253;76510;-24
2023/06/12 07:35:35;;;;;;;3.50;2.30;;;;;;;9.95;92.36;99058.38;105531;1256;72475;-24
2023/06/12 07:38:05;;;;;;;4.00;2.70;;;;;;;9.93;92.75;99061.64;105386;1259;64452;-24
2023/06/12 07:40:48;;;;;;;3.70;2.40;;;;;;;10.15;92.14;99059.56;105487;1253;62425;-24
2023/06/12 07:43:18;;;;;;;40.20;15.00;;;;;;;10.66;90.31;99057.06;105468;1257;72434;-24
2023/06/12 07:45:52;;;;;;;4.00;2.40;;;;;;;10.64;89.50;99053.67;105440;1253;77071;-24
2023/06/12 07:48:24;;;;;;;3.30;1.70;;;;;;;10.27;90.92;99054.30;105508;1255;72601;-22
2023/06/12 07:50:59;;;;;;;4.20;3.60;;;;;;;10.00;92.66;99058.17;105590;1254;61123;-22
2023/06/12 07:53:32;;;;;;;15.90;7.40;;;;;;;9.96;94.18;99057.55;105652;1259;63058;-22
2023/06/12 07:56:09;;;;;;;9.60;4.20;;;;;;;10.40;92.65;99055.34;105691;1257;73697;-22
2023/06/12 07:58:38;;;;;;;5.30;2.30;;;;;;;10.00;93.01;99054.00;105762;1253;73552;-21
2023/06/12 08:01:17;;;;;;;4.00;2.40;;;;;;;9.87;94.90;99057.23;105637;1253;72630;-21
2023/06/12 08:03:59;;;;;;;6.00;4.50;;;;;;;9.91;95.66;99061.45;105419;1260;62811;-21
2023/06/12 08:06:29;;;;;;;16.40;8.60;;;;;;;10.54;94.38;99064.12;105482;1257;62671;-21
2023/06/12 08:08:58;;;;;;;11.20;6.80;;;;;;;10.53;91.92;99062.50;105635;1260;72851;-21
2023/06/12 08:11:26;;;;;;;6.80;4.00;;;;;;;10.31;92.83;99064.40;105653;1258;74908;-21
2023/06/12 08:13:56;;;;;;;9.10;4.00;;;;;;;10.37;93.43;99063.09;105712;1258;74075;-20
2023/06/12 08:16:32;;;;;;;2.70;1.80;;;;;;;10.22;94.10;99067.36;105668;1253;61154;-22
2023/06/12 08:19:01;;;;;;;8.50;3.80;;;;;;;10.25;93.87;99068.52;105713;1257;61097;-23
2023/06/12 08:21:33;;;;;;;5.20;3.20;;;;;;;10.31;93.65;99071.70;105567;1259;74254;-21
2023/06/12 08:24:02;;;;;;;3.90;2.80;;;;;;;10.41;93.10;99068.80;105454;1258;74274;-20
2023/06/12 08:26:30;;;;;;;46.90;14.70;;;;;;;10.44;93.95;99076.23;105225;1256;72679;-22
2023/06/12 08:28:59;;;;;;;36.20;15.80;;;;;;;10.32;93.94;99078.52;105527;1257;61193;-20
2023/06/12 08:31:33;;;;;;;33.30;13.00;;;;;;;10.12;94.93;99080.97;105629;1253;61204;-20
2023/06/12 08:34:01;;;;;;;28.50;14.20;;;;;;;10.25;94.56;99085.86;105466;1260;73813;-21
2023/06/12 08:36:29;;;;;;;16.40;10.40;;;;;;;10.84;92.57;99085.66;105694;1253;74267;-20
2023/06/12 08:38:58;;;;;;;18.60;11.50;;;;;;;10.52;91.62;99083.08;105657;1257;71221;-21
2023/06/12 08:41:25;;;;;;;16.60;9.00;;;;;;;10.23;93.40;99084.61;105520;1254;61130;-21
2023/06/12 08:43:53;;;;;;;29.20;16.00;;;;;;;10.06;95.65;99082.54;105464;1253;61254;-21
2023/06/12 08:46:30;;;;;;;17.20;9.60;;;;;;;10.37;94.30;99080.59;105394;1260;73804;-21
2023/06/12 08:49:01;;;;;;;6.70;2.80;;;;;;;10.25;93.81;99075.96;105465;1258;73067;-22
2023/06/12 08:51:30;;;;;;;5.80;3.00;;;;;;;10.36;93.62;99077.38;105567;1257;71296;-22
2023/06/12 08:53:58;;;;;;;25.40;13.20;;;;;;;10.41;93.49;99074.90;105700;1259;61269;-22
2023/06/12 08:56:26;;;;;;;5.70;3.20;;;;;;;9.84;95.78;99084.40;105657;1260;61091;-22
2023/06/12 08:58:54;;;;;;;5.10;2.30;;;;;;;10.11;95.62;99080.00;105647;1256;72564;-21
2023/06/12 09:01:21;;;;;;;32.80;17.40;;;;;;;9.94;96.00;99079.40;105652;1253;74272;-21
2023/06/12 09:03:51;;;;;;;27.20;13.60;;;;;;;9.90;96.80;99083.52;105604;1258;72687;-21
2023/06/12 09:06:21;;;;;;;5.90;2.80;;;;;;;9.78;97.78;99084.63;105465;1253;61191;-21
2023/06/12 09:08:49;;;;;;;9.50;5.00;;;;;;;10.24;97.15;99082.80;105675;1257;61056;-22
2023/06/12 09:11:17;;;;;;;4.60;2.80;;;;;;;10.37;94.72;99075.70;105570;1253;73827;-20
2023/06/12 09:13:44;;;;;;;4.90;1.60;;;;;;;10.26;94.68;99079.19;105516;1254;74543;-21
2023/06/12 09:16:13;;;;;;;48.60;25.20;;;;;;;10.27;95.62;99083.64;105498;1257;72645;-20
2023/06/12 09:18:51;;;;;;;3.50;2.30;;;;;;;10.07;95.96;99082.57;105267;1253;61165;-20
2023/06/12 09:21:23;;;;;;;4.30;2.50;;;;;;;10.05;96.13;99074.96;105672;1253;61070;-21
2023/06/12 09:23:52;;;;;;;1.90;1.20;;;;;;;10.09;96.04;99066.44;105588;1253;73834;-21
2023/06/12 09:26:21;;;;;;;7.50;3.90;;;;;;;10.04;95.98;99069.45;105520;1253;74741;-20
2023/06/12 09:28:53;;;;;;;2.30;1.50;;;;;;;9.65;97.53;99071.60;105643;1253;73234;-22
2023/06/12 09:31:21;;;;;;;2.20;1.30;;;;;;;9.63;99.43;99078.90;105573;1253;61104;-21
2023/06/12 09:33:55;;;;;;;1.30;0.90;;;;;;;10.00;98.10;99077.43;105609;1253;61157;-21
2023/06/12 09:36:27;;;;;;;6.50;3.50;;;;;;;10.45;96.41;99072.13;105607;1253;73897;-21
2023/06/12 09:38:54;;;;;;;13.80;6.80;;;;;;;10.45;95.13;99072.30;105269;1253;74338;-20
2023/06/12 09:41:25;;;;;;;18.20;8.50;;;;;;;10.52;95.52;99072.48;105567;1253;71411;-21
2023/06/12 09:44:01;;;;;;;5.10;2.30;;;;;;;10.03;96.76;99066.95;105612;1254;61679;-20
2023/06/12 09:46:30;;;;;;;2.40;1.30;;;;;;;9.93;97.38;99063.52;105521;1253;61145;-20
2023/06/12 09:48:58;;;;;;;12.20;6.90;;;;;;;10.11;96.87;99070.67;105499;1261;72656;-20
2023/06/12 09:51:26;;;;;;;2.40;1.30;;;;;;;10.05;97.56;99077.70;105645;1253;76220;-20
2023/06/12 09:53:56;;;;;;;11.70;6.00;;;;;;;9.95;97.72;99070.00;105487;1258;71338;-23
2023/06/12 09:56:23;;;;;;;27.60;13.90;;;;;;;10.01;98.72;99066.73;105222;1255;63689;-20
2023/06/12 09:58:51;;;;;;;5.90;2.90;;;;;;;10.33;97.89;99059.34;105359;1253;61152;-20
2023/06/12 10:01:19;;;;;;;5.70;2.90;;;;;;;10.34;96.56;99056.02;105656;1253;72588;-20
2023/06/12 10:03:47;;;;;;;9.80;4.90;;;;;;;10.10;97.02;99057.52;105699;1253;73090;-20
2023/06/12 10:06:15;;;;;;;26.30;11.90;;;;;;;9.81;98.60;99062.42;105248;1256;72703;-20
2023/06/12 10:08:43;;;;;;;26.10;13.70;;;;;;;9.80;99.52;99065.10;105464;1253;61119;-20
2023/06/12 10:18:50;;;;;;;4.40;2.60;;;;;;;10.09;97.28;99070.30;102627;1295;599423;-19
2023/06/12 10:21:21;;;;;;;21.20;11.90;;;;;;;10.19;98.73;99076.59;104837;1272;61203;-19
2023/06/12 10:23:51;;;;;;;25.20;15.00;;;;;;;10.62;96.71;99072.50;104669;1266;61036;-20
2023/06/12 10:26:18;;;;;;;4.40;2.60;;;;;;;10.47;95.67;99070.80;104760;1275;72233;-20
2023/06/12 10:36:37;;;;;;;33.60;18.00;;;;;;;10.60;94.39;99065.58;102598;1293;600131;-19
2023/06/12 10:39:05;;;;;;;24.10;11.90;;;;;;;10.42;94.67;99066.11;105653;1254;61113;-19
2023/06/12 10:49:13;;;;;;;31.30;15.00;;;;;;;10.24;95.55;99057.96;102687;1292;600138;-19
2023/06/12 10:51:47;;;;;;;34.30;18.40;;;;;;;10.10;96.27;99066.36;104833;1272;61175;-19
2023/06/12 10:54:15;;;;;;;27.60;14.50;;;;;;;9.81;98.01;99068.84;104652;1266;61068;-19
2023/06/12 10:56:58;;;;;;;58.90;26.60;;;;;;;10.02;98.66;99066.80;104696;1265;70981;-19
2023/06/12 10:59:31;;;;;;;40.10;20.10;;;;;;;10.10;97.39;99064.45;104807;1266;78365;-19
2023/06/12 11:01:58;;;;;;;49.40;24.20;;;;;;;10.26;97.07;99062.05;102844;1267;2749092;-19
2023/06/12 11:12:10;;;;;;;23.00;12.10;;;;;;;10.28;97.99;99048.29;102662;1294;600081;-20
2023/06/12 11:14:37;;;;;;;17.00;9.70;;;;;;;10.21;98.16;99048.34;104920;1270;61130;-21
2023/06/12 11:17:05;;;;;;;24.60;12.20;;;;;;;10.05;98.91;99058.66;104896;1266;61060;-21
2023/06/12 11:19:33;;;;;;;21.80;11.40;;;;;;;10.29;99.08;99065.91;104817;1264;74698;-21
2023/06/12 11:22:03;;;;;;;8.80;5.00;;;;;;;10.58;97.28;99059.17;104902;1267;73145;-21
2023/06/12 11:24:31;;;;;;;21.40;11.80;;;;;;;10.65;96.40;99053.34;104812;1266;72628;-21
2023/06/12 11:34:46;;;;;;;33.40;18.40;;;;;;;11.14;94.96;99039.09;102672;1300;600125;-21
2023/06/12 11:37:15;;;;;;;12.50;7.10;;;;;;;11.21;93.75;99039.89;105181;1269;61091;-21
2023/06/12 11:47:25;;;;;;;5.60;3.10;;;;;;;11.38;94.48;99045.75;102614;1292;600216;-20
2023/06/12 11:49:56;;;;;;;2.40;1.50;;;;;;;11.48;90.74;99051.02;104794;1272;61231;-20
2023/06/12 11:52:23;;;;;;;27.70;12.80;;;;;;;10.97;92.35;99055.96;105161;1263;61078;-21
2023/06/12 12:02:39;;;;;;;23.30;12.70;;;;;;;10.69;93.64;99055.81;102578;1292;600328;-20
2023/06/12 12:05:10;;;;;;;12.00;6.60;;;;;;;10.54;95.21;99059.27;104795;1267;61148;-21
2023/06/12 12:07:39;;;;;;;28.50;15.10;;;;;;;10.44;95.43;99063.04;104797;1267;61148;-21
2023/06/12 12:10:11;;;;;;;8.60;4.90;;;;;;;10.57;95.98;99059.21;104853;1267;72225;-21
2023/06/12 12:20:18;;;;;;;30.90;17.00;;;;;;;10.93;93.70;99062.86;102685;1293;600062;-20
2023/06/12 12:22:50;;;;;;;20.30;10.20;;;;;;;10.49;94.69;99067.52;104868;1271;61187;-20
2023/06/12 12:25:28;;;;;;;28.60;14.70;;;;;;;10.77;95.17;99073.18;104896;1264;61101;-20
2023/06/12 12:27:59;;;;;;;21.90;12.10;;;;;;;10.81;93.71;99072.39;104854;1266;72264;-20
2023/06/12 12:30:27;;;;;;;5.50;3.00;;;;;;;10.80;93.25;99072.96;104835;1268;75517;-20
2023/06/12 12:32:56;;;;;;;31.00;18.60;;;;;;;10.39;95.86;99071.41;102775;1263;2681690;-20
2023/06/12 12:35:24;;;;;;;11.30;6.60;;;;;;;10.19;96.77;99072.98;104850;1263;62736;-21
2023/06/12 12:37:54;;;;;;;16.40;9.70;;;;;;;10.42;96.99;99068.60;104849;1267;61119;-22